sensor_id;sensor_type;location;lat;lon;timestamp;temperature;humidity
86002;DHT22;76581;51.988;5.854;2024-02-23T00:00:30;6.30;90.20
86002;DHT22;76581;51.988;5.854;2024-02-23T00:01:30;6.30;90.20
86002;DHT22;76581;51.988;5.854;2024-02-23T00:02:31;6.30;90.20
86002;DHT22;76581;51.988;5.854;2024-02-23T00:03:33;6.30;90.20
86002;DHT22;76581;51.988;5.854;2024-02-23T00:04:35;6.30;90.10
86002;DHT22;76581;51.988;5.854;2024-02-23T00:05:35;6.30;90.10
86002;DHT22;76581;51.988;5.854;2024-02-23T00:06:36;6.30;90.10
86002;DHT22;76581;51.988;5.854;2024-02-23T00:07:36;6.30;90.00
86002;DHT22;76581;51.988;5.854;2024-02-23T00:08:37;6.20;89.10
86002;DHT22;76581;51.988;5.854;2024-02-23T00:09:38;6.20;89.20
86002;DHT22;76581;51.988;5.854;2024-02-23T00:10:38;6.20;89.10
86002;DHT22;76581;51.988;5.854;2024-02-23T00:11:40;6.20;88.80
86002;DHT22;76581;51.988;5.854;2024-02-23T00:12:44;6.20;89.60
86002;DHT22;76581;51.988;5.854;2024-02-23T00:13:44;6.30;89.70
86002;DHT22;76581;51.988;5.854;2024-02-23T00:14:45;6.30;88.70
86002;DHT22;76581;51.988;5.854;2024-02-23T00:15:46;6.20;88.90
86002;DHT22;76581;51.988;5.854;2024-02-23T00:16:46;6.30;89.70
86002;DHT22;76581;51.988;5.854;2024-02-23T00:17:47;6.30;89.60
86002;DHT22;76581;51.988;5.854;2024-02-23T00:18:47;6.30;89.60
86002;DHT22;76581;51.988;5.854;2024-02-23T00:19:48;6.30;89.60
86002;DHT22;76581;51.988;5.854;2024-02-23T00:20:49;6.30;89.60
86002;DHT22;76581;51.988;5.854;2024-02-23T00:21:50;6.30;89.70
86002;DHT22;76581;51.988;5.854;2024-02-23T00:22:51;6.30;89.90
86002;DHT22;76581;51.988;5.854;2024-02-23T00:23:52;6.20;89.90
86002;DHT22;76581;51.988;5.854;2024-02-23T00:24:52;6.20;89.90
86002;DHT22;76581;51.988;5.854;2024-02-23T00:25:53;6.20;90.00
86002;DHT22;76581;51.988;5.854;2024-02-23T00:26:54;6.30;90.10
86002;DHT22;76581;51.988;5.854;2024-02-23T00:27:54;6.30;90.00
86002;DHT22;76581;51.988;5.854;2024-02-23T00:28:55;6.30;90.10
86002;DHT22;76581;51.988;5.854;2024-02-23T00:29:55;6.20;90.10
86002;DHT22;76581;51.988;5.854;2024-02-23T00:30:56;6.30;90.10
86002;DHT22;76581;51.988;5.854;2024-02-23T00:31:56;6.30;90.20
86002;DHT22;76581;51.988;5.854;2024-02-23T00:32:57;6.30;90.20
86002;DHT22;76581;51.988;5.854;2024-02-23T00:33:57;6.30;90.20
86002;DHT22;76581;51.988;5.854;2024-02-23T00:34:58;6.30;90.20
86002;DHT22;76581;51.988;5.854;2024-02-23T00:35:59;6.30;90.20
86002;DHT22;76581;51.988;5.854;2024-02-23T00:36:59;6.30;90.20
86002;DHT22;76581;51.988;5.854;2024-02-23T00:38:00;6.30;90.30
86002;DHT22;76581;51.988;5.854;2024-02-23T00:39:01;6.30;90.30
86002;DHT22;76581;51.988;5.854;2024-02-23T00:40:02;6.30;90.30
86002;DHT22;76581;51.988;5.854;2024-02-23T00:41:04;6.30;90.20
86002;DHT22;76581;51.988;5.854;2024-02-23T00:42:05;6.30;90.20
86002;DHT22;76581;51.988;5.854;2024-02-23T00:43:06;6.30;90.20
86002;DHT22;76581;51.988;5.854;2024-02-23T00:44:06;6.30;90.20
86002;DHT22;76581;51.988;5.854;2024-02-23T00:45:07;6.30;90.20
86002;DHT22;76581;51.988;5.854;2024-02-23T00:46:08;6.30;90.20
86002;DHT22;76581;51.988;5.854;2024-02-23T00:47:09;6.30;90.20
86002;DHT22;76581;51.988;5.854;2024-02-23T00:48:09;6.30;90.30
86002;DHT22;76581;51.988;5.854;2024-02-23T00:49:11;6.30;90.20
86002;DHT22;76581;51.988;5.854;2024-02-23T00:50:11;6.30;90.20
86002;DHT22;76581;51.988;5.854;2024-02-23T00:51:12;6.30;90.20
86002;DHT22;76581;51.988;5.854;2024-02-23T00:52:12;6.30;90.20
86002;DHT22;76581;51.988;5.854;2024-02-23T00:53:13;6.30;90.20
86002;DHT22;76581;51.988;5.854;2024-02-23T00:54:13;6.30;90.20
86002;DHT22;76581;51.988;5.854;2024-02-23T00:55:14;6.20;89.70
86002;DHT22;76581;51.988;5.854;2024-02-23T00:56:14;6.30;89.80
86002;DHT22;76581;51.988;5.854;2024-02-23T00:57:15;6.20;90.30
86002;DHT22;76581;51.988;5.854;2024-02-23T00:58:16;6.20;89.90
86002;DHT22;76581;51.988;5.854;2024-02-23T00:59:17;6.20;90.00
86002;DHT22;76581;51.988;5.854;2024-02-23T01:00:18;6.10;89.90
86002;DHT22;76581;51.988;5.854;2024-02-23T01:01:18;6.10;90.10
86002;DHT22;76581;51.988;5.854;2024-02-23T01:02:19;6.10;90.20
86002;DHT22;76581;51.988;5.854;2024-02-23T01:03:19;6.10;90.30
86002;DHT22;76581;51.988;5.854;2024-02-23T01:04:20;6.10;90.40
86002;DHT22;76581;51.988;5.854;2024-02-23T01:05:20;6.10;90.50
86002;DHT22;76581;51.988;5.854;2024-02-23T01:06:21;6.10;90.20
86002;DHT22;76581;51.988;5.854;2024-02-23T01:07:21;6.10;90.10
86002;DHT22;76581;51.988;5.854;2024-02-23T01:08:22;6.20;90.10
86002;DHT22;76581;51.988;5.854;2024-02-23T01:09:22;6.10;90.10
86002;DHT22;76581;51.988;5.854;2024-02-23T01:10:23;6.20;90.30
86002;DHT22;76581;51.988;5.854;2024-02-23T01:11:23;6.20;90.50
86002;DHT22;76581;51.988;5.854;2024-02-23T01:12:24;6.20;90.40
86002;DHT22;76581;51.988;5.854;2024-02-23T01:13:24;6.20;90.30
86002;DHT22;76581;51.988;5.854;2024-02-23T01:14:25;6.20;90.30
86002;DHT22;76581;51.988;5.854;2024-02-23T01:15:25;6.20;90.30
86002;DHT22;76581;51.988;5.854;2024-02-23T01:16:26;6.20;90.20
86002;DHT22;76581;51.988;5.854;2024-02-23T01:17:26;6.20;90.30
86002;DHT22;76581;51.988;5.854;2024-02-23T01:18:27;6.30;90.30
86002;DHT22;76581;51.988;5.854;2024-02-23T01:19:28;6.20;90.40
86002;DHT22;76581;51.988;5.854;2024-02-23T01:20:28;6.20;90.50
86002;DHT22;76581;51.988;5.854;2024-02-23T01:21:29;6.20;90.50
86002;DHT22;76581;51.988;5.854;2024-02-23T01:22:29;6.30;90.60
86002;DHT22;76581;51.988;5.854;2024-02-23T01:23:30;6.30;90.50
86002;DHT22;76581;51.988;5.854;2024-02-23T01:24:30;6.30;90.60
86002;DHT22;76581;51.988;5.854;2024-02-23T01:25:31;6.30;90.50
86002;DHT22;76581;51.988;5.854;2024-02-23T01:26:31;6.30;90.40
86002;DHT22;76581;51.988;5.854;2024-02-23T01:27:32;6.30;90.40
86002;DHT22;76581;51.988;5.854;2024-02-23T01:28:32;6.40;90.50
86002;DHT22;76581;51.988;5.854;2024-02-23T01:29:33;6.40;90.40
86002;DHT22;76581;51.988;5.854;2024-02-23T01:30:34;6.30;90.40
86002;DHT22;76581;51.988;5.854;2024-02-23T01:31:35;6.40;90.50
86002;DHT22;76581;51.988;5.854;2024-02-23T01:32:35;6.40;90.50
86002;DHT22;76581;51.988;5.854;2024-02-23T01:33:38;6.40;90.50
86002;DHT22;76581;51.988;5.854;2024-02-23T01:34:39;6.40;90.50
86002;DHT22;76581;51.988;5.854;2024-02-23T01:35:40;6.40;90.50
86002;DHT22;76581;51.988;5.854;2024-02-23T01:36:40;6.40;90.50
86002;DHT22;76581;51.988;5.854;2024-02-23T01:37:41;6.40;90.50
86002;DHT22;76581;51.988;5.854;2024-02-23T01:38:41;6.40;90.50
86002;DHT22;76581;51.988;5.854;2024-02-23T01:39:43;6.40;90.50
86002;DHT22;76581;51.988;5.854;2024-02-23T01:40:43;6.40;90.40
86002;DHT22;76581;51.988;5.854;2024-02-23T01:41:44;6.40;90.40
86002;DHT22;76581;51.988;5.854;2024-02-23T01:42:44;6.40;90.30
86002;DHT22;76581;51.988;5.854;2024-02-23T01:43:45;6.40;90.40
86002;DHT22;76581;51.988;5.854;2024-02-23T01:44:46;6.40;90.40
86002;DHT22;76581;51.988;5.854;2024-02-23T01:45:46;6.40;90.40
86002;DHT22;76581;51.988;5.854;2024-02-23T01:46:47;6.40;90.30
86002;DHT22;76581;51.988;5.854;2024-02-23T01:47:48;6.40;90.40
86002;DHT22;76581;51.988;5.854;2024-02-23T01:48:48;6.40;90.40
86002;DHT22;76581;51.988;5.854;2024-02-23T01:49:49;6.40;90.40
86002;DHT22;76581;51.988;5.854;2024-02-23T01:50:50;6.40;90.30
86002;DHT22;76581;51.988;5.854;2024-02-23T01:51:51;6.40;90.30
86002;DHT22;76581;51.988;5.854;2024-02-23T01:52:52;6.40;90.30
86002;DHT22;76581;51.988;5.854;2024-02-23T01:53:53;6.40;90.30
86002;DHT22;76581;51.988;5.854;2024-02-23T01:54:54;6.40;90.30
86002;DHT22;76581;51.988;5.854;2024-02-23T01:55:56;6.40;90.30
86002;DHT22;76581;51.988;5.854;2024-02-23T01:56:58;6.40;90.30
86002;DHT22;76581;51.988;5.854;2024-02-23T01:58:00;6.30;90.20
86002;DHT22;76581;51.988;5.854;2024-02-23T01:59:02;6.30;90.20
86002;DHT22;76581;51.988;5.854;2024-02-23T02:00:04;6.30;90.20
86002;DHT22;76581;51.988;5.854;2024-02-23T02:01:06;6.30;90.20
86002;DHT22;76581;51.988;5.854;2024-02-23T02:02:06;6.30;90.20
86002;DHT22;76581;51.988;5.854;2024-02-23T02:03:07;6.30;90.20
86002;DHT22;76581;51.988;5.854;2024-02-23T02:04:08;6.30;90.20
86002;DHT22;76581;51.988;5.854;2024-02-23T02:05:09;6.30;90.30
86002;DHT22;76581;51.988;5.854;2024-02-23T02:06:10;6.30;90.30
86002;DHT22;76581;51.988;5.854;2024-02-23T02:07:11;6.30;90.30
86002;DHT22;76581;51.988;5.854;2024-02-23T02:08:12;6.30;90.20
86002;DHT22;76581;51.988;5.854;2024-02-23T02:09:13;6.20;90.10
86002;DHT22;76581;51.988;5.854;2024-02-23T02:10:13;6.20;90.20
86002;DHT22;76581;51.988;5.854;2024-02-23T02:11:14;6.20;90.20
86002;DHT22;76581;51.988;5.854;2024-02-23T02:12:15;6.20;90.30
86002;DHT22;76581;51.988;5.854;2024-02-23T02:13:28;6.20;90.20
86002;DHT22;76581;51.988;5.854;2024-02-23T02:14:28;6.20;90.20
86002;DHT22;76581;51.988;5.854;2024-02-23T02:15:31;6.20;90.20
86002;DHT22;76581;51.988;5.854;2024-02-23T02:16:32;6.20;90.20
86002;DHT22;76581;51.988;5.854;2024-02-23T02:17:32;6.20;90.20
86002;DHT22;76581;51.988;5.854;2024-02-23T02:18:33;6.20;90.20
86002;DHT22;76581;51.988;5.854;2024-02-23T02:19:33;6.20;90.30
86002;DHT22;76581;51.988;5.854;2024-02-23T02:20:37;6.20;90.30
86002;DHT22;76581;51.988;5.854;2024-02-23T02:21:41;6.20;90.20
86002;DHT22;76581;51.988;5.854;2024-02-23T02:22:41;6.10;90.20
86002;DHT22;76581;51.988;5.854;2024-02-23T02:23:42;6.10;90.20
86002;DHT22;76581;51.988;5.854;2024-02-23T02:24:42;6.10;90.10
86002;DHT22;76581;51.988;5.854;2024-02-23T02:25:44;6.10;90.10
86002;DHT22;76581;51.988;5.854;2024-02-23T02:26:44;6.10;90.10
86002;DHT22;76581;51.988;5.854;2024-02-23T02:27:46;6.10;90.10
86002;DHT22;76581;51.988;5.854;2024-02-23T02:28:47;6.10;90.10
86002;DHT22;76581;51.988;5.854;2024-02-23T02:29:50;6.10;90.10
86002;DHT22;76581;51.988;5.854;2024-02-23T02:30:52;6.10;90.10
86002;DHT22;76581;51.988;5.854;2024-02-23T02:31:53;6.10;90.10
86002;DHT22;76581;51.988;5.854;2024-02-23T02:32:53;6.10;90.10
86002;DHT22;76581;51.988;5.854;2024-02-23T02:33:54;6.00;90.40
86002;DHT22;76581;51.988;5.854;2024-02-23T02:34:54;6.10;90.10
86002;DHT22;76581;51.988;5.854;2024-02-23T02:35:55;6.10;90.10
86002;DHT22;76581;51.988;5.854;2024-02-23T02:36:55;6.00;90.10
86002;DHT22;76581;51.988;5.854;2024-02-23T02:37:56;6.10;90.10
86002;DHT22;76581;51.988;5.854;2024-02-23T02:38:57;6.00;90.10
86002;DHT22;76581;51.988;5.854;2024-02-23T02:39:57;6.00;90.10
86002;DHT22;76581;51.988;5.854;2024-02-23T02:40:58;6.00;90.00
86002;DHT22;76581;51.988;5.854;2024-02-23T02:42:00;6.00;90.10
86002;DHT22;76581;51.988;5.854;2024-02-23T02:43:01;6.00;90.10
86002;DHT22;76581;51.988;5.854;2024-02-23T02:44:01;6.10;90.10
86002;DHT22;76581;51.988;5.854;2024-02-23T02:45:02;6.00;90.10
86002;DHT22;76581;51.988;5.854;2024-02-23T02:46:03;6.00;90.00
86002;DHT22;76581;51.988;5.854;2024-02-23T02:47:04;6.00;90.10
86002;DHT22;76581;51.988;5.854;2024-02-23T02:48:04;6.00;90.10
86002;DHT22;76581;51.988;5.854;2024-02-23T02:49:05;6.10;90.10
86002;DHT22;76581;51.988;5.854;2024-02-23T02:50:06;6.00;90.00
86002;DHT22;76581;51.988;5.854;2024-02-23T02:51:06;6.00;90.00
86002;DHT22;76581;51.988;5.854;2024-02-23T02:52:07;6.00;90.10
86002;DHT22;76581;51.988;5.854;2024-02-23T02:53:08;6.00;90.10
86002;DHT22;76581;51.988;5.854;2024-02-23T02:54:10;6.00;90.10
86002;DHT22;76581;51.988;5.854;2024-02-23T02:55:10;6.00;90.10
86002;DHT22;76581;51.988;5.854;2024-02-23T02:56:11;6.00;90.10
86002;DHT22;76581;51.988;5.854;2024-02-23T02:57:11;6.00;90.10
86002;DHT22;76581;51.988;5.854;2024-02-23T02:58:12;6.00;90.10
86002;DHT22;76581;51.988;5.854;2024-02-23T02:59:13;6.00;90.00
86002;DHT22;76581;51.988;5.854;2024-02-23T03:00:14;6.00;90.00
86002;DHT22;76581;51.988;5.854;2024-02-23T03:01:14;6.00;90.00
86002;DHT22;76581;51.988;5.854;2024-02-23T03:02:15;6.00;90.00
86002;DHT22;76581;51.988;5.854;2024-02-23T03:03:15;6.10;90.00
86002;DHT22;76581;51.988;5.854;2024-02-23T03:04:16;6.10;90.00
86002;DHT22;76581;51.988;5.854;2024-02-23T03:05:16;6.10;89.90
86002;DHT22;76581;51.988;5.854;2024-02-23T03:06:17;6.00;89.90
86002;DHT22;76581;51.988;5.854;2024-02-23T03:07:17;6.10;90.00
86002;DHT22;76581;51.988;5.854;2024-02-23T03:08:18;6.00;89.70
86002;DHT22;76581;51.988;5.854;2024-02-23T03:09:18;6.10;89.90
86002;DHT22;76581;51.988;5.854;2024-02-23T03:10:19;6.00;89.80
86002;DHT22;76581;51.988;5.854;2024-02-23T03:11:19;6.10;90.00
86002;DHT22;76581;51.988;5.854;2024-02-23T03:12:20;6.10;90.00
86002;DHT22;76581;51.988;5.854;2024-02-23T03:13:20;6.10;90.00
86002;DHT22;76581;51.988;5.854;2024-02-23T03:14:21;6.10;90.00
86002;DHT22;76581;51.988;5.854;2024-02-23T03:15:22;6.10;89.90
86002;DHT22;76581;51.988;5.854;2024-02-23T03:16:22;6.10;89.90
86002;DHT22;76581;51.988;5.854;2024-02-23T03:17:23;6.10;89.80
86002;DHT22;76581;51.988;5.854;2024-02-23T03:18:24;6.10;89.70
86002;DHT22;76581;51.988;5.854;2024-02-23T03:19:25;6.10;89.70
86002;DHT22;76581;51.988;5.854;2024-02-23T03:20:26;6.10;89.60
86002;DHT22;76581;51.988;5.854;2024-02-23T03:21:26;6.10;89.40
86002;DHT22;76581;51.988;5.854;2024-02-23T03:22:27;6.10;89.40
86002;DHT22;76581;51.988;5.854;2024-02-23T03:23:27;6.10;89.10
86002;DHT22;76581;51.988;5.854;2024-02-23T03:24:29;6.10;89.30
86002;DHT22;76581;51.988;5.854;2024-02-23T03:25:29;6.00;90.00
86002;DHT22;76581;51.988;5.854;2024-02-23T03:26:30;6.00;89.30
86002;DHT22;76581;51.988;5.854;2024-02-23T03:27:30;6.00;89.20
86002;DHT22;76581;51.988;5.854;2024-02-23T03:28:31;6.00;89.40
86002;DHT22;76581;51.988;5.854;2024-02-23T03:29:32;6.00;89.20
86002;DHT22;76581;51.988;5.854;2024-02-23T03:30:33;6.00;89.00
86002;DHT22;76581;51.988;5.854;2024-02-23T03:31:33;6.00;89.10
86002;DHT22;76581;51.988;5.854;2024-02-23T03:32:34;6.00;89.20
86002;DHT22;76581;51.988;5.854;2024-02-23T03:33:39;6.00;89.20
86002;DHT22;76581;51.988;5.854;2024-02-23T03:34:39;6.00;89.10
86002;DHT22;76581;51.988;5.854;2024-02-23T03:35:40;6.00;89.20
86002;DHT22;76581;51.988;5.854;2024-02-23T03:36:40;6.00;89.10
86002;DHT22;76581;51.988;5.854;2024-02-23T03:37:41;6.00;89.30
86002;DHT22;76581;51.988;5.854;2024-02-23T03:38:41;6.00;89.30
86002;DHT22;76581;51.988;5.854;2024-02-23T03:39:42;6.10;89.40
86002;DHT22;76581;51.988;5.854;2024-02-23T03:40:42;6.00;89.30
86002;DHT22;76581;51.988;5.854;2024-02-23T03:41:43;6.10;89.40
86002;DHT22;76581;51.988;5.854;2024-02-23T03:42:43;6.10;89.20
86002;DHT22;76581;51.988;5.854;2024-02-23T03:43:44;6.00;89.10
86002;DHT22;76581;51.988;5.854;2024-02-23T03:44:44;6.10;89.20
86002;DHT22;76581;51.988;5.854;2024-02-23T03:45:45;6.10;89.10
86002;DHT22;76581;51.988;5.854;2024-02-23T03:46:45;6.10;89.10
86002;DHT22;76581;51.988;5.854;2024-02-23T03:47:46;6.10;89.20
86002;DHT22;76581;51.988;5.854;2024-02-23T03:48:47;6.10;89.00
86002;DHT22;76581;51.988;5.854;2024-02-23T03:49:47;6.10;89.00
86002;DHT22;76581;51.988;5.854;2024-02-23T03:50:48;6.10;89.00
86002;DHT22;76581;51.988;5.854;2024-02-23T03:51:48;6.10;89.00
86002;DHT22;76581;51.988;5.854;2024-02-23T03:52:49;6.10;88.70
86002;DHT22;76581;51.988;5.854;2024-02-23T03:53:50;6.10;88.90
86002;DHT22;76581;51.988;5.854;2024-02-23T03:54:50;6.10;89.00
86002;DHT22;76581;51.988;5.854;2024-02-23T03:55:52;6.10;89.00
86002;DHT22;76581;51.988;5.854;2024-02-23T03:56:52;6.10;89.10
86002;DHT22;76581;51.988;5.854;2024-02-23T03:57:53;6.10;89.00
86002;DHT22;76581;51.988;5.854;2024-02-23T03:58:53;6.10;88.90
86002;DHT22;76581;51.988;5.854;2024-02-23T03:59:55;6.10;88.90
86002;DHT22;76581;51.988;5.854;2024-02-23T04:00:55;6.10;88.80
86002;DHT22;76581;51.988;5.854;2024-02-23T04:01:56;6.10;88.80
86002;DHT22;76581;51.988;5.854;2024-02-23T04:02:57;6.00;88.60
86002;DHT22;76581;51.988;5.854;2024-02-23T04:03:57;6.00;88.70
86002;DHT22;76581;51.988;5.854;2024-02-23T04:04:58;6.00;88.80
86002;DHT22;76581;51.988;5.854;2024-02-23T04:05:58;6.00;88.80
86002;DHT22;76581;51.988;5.854;2024-02-23T04:06:59;6.00;88.60
86002;DHT22;76581;51.988;5.854;2024-02-23T04:07:59;6.00;88.80
86002;DHT22;76581;51.988;5.854;2024-02-23T04:09:00;6.00;88.80
86002;DHT22;76581;51.988;5.854;2024-02-23T04:10:01;6.00;88.80
86002;DHT22;76581;51.988;5.854;2024-02-23T04:11:01;6.00;88.90
86002;DHT22;76581;51.988;5.854;2024-02-23T04:12:02;6.00;88.90
86002;DHT22;76581;51.988;5.854;2024-02-23T04:13:02;6.00;88.90
86002;DHT22;76581;51.988;5.854;2024-02-23T04:14:03;6.00;89.00
86002;DHT22;76581;51.988;5.854;2024-02-23T04:15:05;6.00;88.90
86002;DHT22;76581;51.988;5.854;2024-02-23T04:16:06;6.00;88.90
86002;DHT22;76581;51.988;5.854;2024-02-23T04:17:06;6.00;89.00
86002;DHT22;76581;51.988;5.854;2024-02-23T04:18:07;6.00;89.00
86002;DHT22;76581;51.988;5.854;2024-02-23T04:19:08;6.00;89.10
86002;DHT22;76581;51.988;5.854;2024-02-23T04:20:08;6.00;88.90
86002;DHT22;76581;51.988;5.854;2024-02-23T04:21:12;6.00;88.90
86002;DHT22;76581;51.988;5.854;2024-02-23T04:22:12;6.00;88.90
86002;DHT22;76581;51.988;5.854;2024-02-23T04:23:13;6.00;88.80
86002;DHT22;76581;51.988;5.854;2024-02-23T04:24:14;6.00;88.90
86002;DHT22;76581;51.988;5.854;2024-02-23T04:25:15;6.00;88.90
86002;DHT22;76581;51.988;5.854;2024-02-23T04:26:15;6.00;88.90
86002;DHT22;76581;51.988;5.854;2024-02-23T04:27:16;6.00;88.90
86002;DHT22;76581;51.988;5.854;2024-02-23T04:28:17;6.00;88.90
86002;DHT22;76581;51.988;5.854;2024-02-23T04:29:17;6.00;88.80
86002;DHT22;76581;51.988;5.854;2024-02-23T04:30:18;6.00;88.60
86002;DHT22;76581;51.988;5.854;2024-02-23T04:31:19;6.00;88.80
86002;DHT22;76581;51.988;5.854;2024-02-23T04:32:19;6.00;88.90
86002;DHT22;76581;51.988;5.854;2024-02-23T04:33:20;6.00;88.80
86002;DHT22;76581;51.988;5.854;2024-02-23T04:34:20;6.00;88.90
86002;DHT22;76581;51.988;5.854;2024-02-23T04:35:20;6.00;88.80
86002;DHT22;76581;51.988;5.854;2024-02-23T04:36:21;5.90;88.90
86002;DHT22;76581;51.988;5.854;2024-02-23T04:37:22;6.00;88.80
86002;DHT22;76581;51.988;5.854;2024-02-23T04:38:22;5.90;88.80
86002;DHT22;76581;51.988;5.854;2024-02-23T04:39:23;6.00;88.90
86002;DHT22;76581;51.988;5.854;2024-02-23T04:40:23;6.00;89.00
86002;DHT22;76581;51.988;5.854;2024-02-23T04:41:24;6.00;89.80
86002;DHT22;76581;51.988;5.854;2024-02-23T04:42:24;6.00;89.00
86002;DHT22;76581;51.988;5.854;2024-02-23T04:43:25;6.00;89.00
86002;DHT22;76581;51.988;5.854;2024-02-23T04:44:26;6.00;88.90
86002;DHT22;76581;51.988;5.854;2024-02-23T04:45:26;6.00;89.20
86002;DHT22;76581;51.988;5.854;2024-02-23T04:46:27;6.00;88.80
86002;DHT22;76581;51.988;5.854;2024-02-23T04:47:27;6.00;88.90
86002;DHT22;76581;51.988;5.854;2024-02-23T04:48:28;6.00;88.90
86002;DHT22;76581;51.988;5.854;2024-02-23T04:49:31;6.00;88.80
86002;DHT22;76581;51.988;5.854;2024-02-23T04:50:31;6.00;88.60
86002;DHT22;76581;51.988;5.854;2024-02-23T04:51:32;6.00;88.70
86002;DHT22;76581;51.988;5.854;2024-02-23T04:52:32;6.00;88.70
86002;DHT22;76581;51.988;5.854;2024-02-23T04:53:36;6.00;88.90
86002;DHT22;76581;51.988;5.854;2024-02-23T04:54:37;6.00;88.80
86002;DHT22;76581;51.988;5.854;2024-02-23T04:55:38;6.00;88.90
86002;DHT22;76581;51.988;5.854;2024-02-23T04:56:38;6.00;88.80
86002;DHT22;76581;51.988;5.854;2024-02-23T04:57:39;6.00;88.80
86002;DHT22;76581;51.988;5.854;2024-02-23T04:58:40;6.00;89.00
86002;DHT22;76581;51.988;5.854;2024-02-23T04:59:42;6.00;88.80
86002;DHT22;76581;51.988;5.854;2024-02-23T05:00:43;6.00;88.80
86002;DHT22;76581;51.988;5.854;2024-02-23T05:01:43;6.00;88.80
86002;DHT22;76581;51.988;5.854;2024-02-23T05:02:45;6.00;88.80
86002;DHT22;76581;51.988;5.854;2024-02-23T05:03:45;6.00;88.70
86002;DHT22;76581;51.988;5.854;2024-02-23T05:04:46;6.00;88.80
86002;DHT22;76581;51.988;5.854;2024-02-23T05:05:46;6.00;88.70
86002;DHT22;76581;51.988;5.854;2024-02-23T05:06:47;6.00;88.80
86002;DHT22;76581;51.988;5.854;2024-02-23T05:07:48;6.00;88.70
86002;DHT22;76581;51.988;5.854;2024-02-23T05:08:48;6.00;88.70
86002;DHT22;76581;51.988;5.854;2024-02-23T05:09:49;6.10;88.90
86002;DHT22;76581;51.988;5.854;2024-02-23T05:10:50;6.10;88.80
86002;DHT22;76581;51.988;5.854;2024-02-23T05:11:51;6.10;88.80
86002;DHT22;76581;51.988;5.854;2024-02-23T05:12:51;6.10;88.50
86002;DHT22;76581;51.988;5.854;2024-02-23T05:13:52;6.10;88.60
86002;DHT22;76581;51.988;5.854;2024-02-23T05:14:52;6.10;88.70
86002;DHT22;76581;51.988;5.854;2024-02-23T05:15:55;6.10;88.80
86002;DHT22;76581;51.988;5.854;2024-02-23T05:16:56;6.10;88.80
86002;DHT22;76581;51.988;5.854;2024-02-23T05:17:56;6.10;88.80
86002;DHT22;76581;51.988;5.854;2024-02-23T05:18:57;6.10;88.70
86002;DHT22;76581;51.988;5.854;2024-02-23T05:19:58;6.10;88.60
86002;DHT22;76581;51.988;5.854;2024-02-23T05:20:58;6.20;88.70
86002;DHT22;76581;51.988;5.854;2024-02-23T05:22:00;6.10;88.60
86002;DHT22;76581;51.988;5.854;2024-02-23T05:23:00;6.10;88.60
86002;DHT22;76581;51.988;5.854;2024-02-23T05:24:01;6.20;88.70
86002;DHT22;76581;51.988;5.854;2024-02-23T05:25:02;6.20;88.80
86002;DHT22;76581;51.988;5.854;2024-02-23T05:26:03;6.20;88.90
86002;DHT22;76581;51.988;5.854;2024-02-23T05:27:04;6.20;89.60
86002;DHT22;76581;51.988;5.854;2024-02-23T05:28:05;6.20;88.70
86002;DHT22;76581;51.988;5.854;2024-02-23T05:29:05;6.20;88.60
86002;DHT22;76581;51.988;5.854;2024-02-23T05:30:06;6.30;88.60
86002;DHT22;76581;51.988;5.854;2024-02-23T05:31:09;6.20;88.50
86002;DHT22;76581;51.988;5.854;2024-02-23T05:32:09;6.30;88.50
86002;DHT22;76581;51.988;5.854;2024-02-23T05:33:11;6.30;88.50
86002;DHT22;76581;51.988;5.854;2024-02-23T05:34:11;6.30;88.40
86002;DHT22;76581;51.988;5.854;2024-02-23T05:35:12;6.30;88.30
86002;DHT22;76581;51.988;5.854;2024-02-23T05:36:13;6.30;88.30
86002;DHT22;76581;51.988;5.854;2024-02-23T05:37:13;6.30;88.20
86002;DHT22;76581;51.988;5.854;2024-02-23T05:38:15;6.30;88.30
86002;DHT22;76581;51.988;5.854;2024-02-23T05:39:15;6.30;88.20
86002;DHT22;76581;51.988;5.854;2024-02-23T05:40:16;6.30;88.30
86002;DHT22;76581;51.988;5.854;2024-02-23T05:41:16;6.30;88.00
86002;DHT22;76581;51.988;5.854;2024-02-23T05:42:17;6.30;88.00
86002;DHT22;76581;51.988;5.854;2024-02-23T05:43:18;6.30;88.10
86002;DHT22;76581;51.988;5.854;2024-02-23T05:44:18;6.30;88.10
86002;DHT22;76581;51.988;5.854;2024-02-23T05:45:19;6.30;88.00
86002;DHT22;76581;51.988;5.854;2024-02-23T05:46:20;6.30;88.00
86002;DHT22;76581;51.988;5.854;2024-02-23T05:47:21;6.30;88.00
86002;DHT22;76581;51.988;5.854;2024-02-23T05:48:22;6.30;88.00
86002;DHT22;76581;51.988;5.854;2024-02-23T05:49:22;6.30;87.90
86002;DHT22;76581;51.988;5.854;2024-02-23T05:50:23;6.30;88.00
86002;DHT22;76581;51.988;5.854;2024-02-23T05:51:23;6.30;87.80
86002;DHT22;76581;51.988;5.854;2024-02-23T05:52:24;6.30;87.80
86002;DHT22;76581;51.988;5.854;2024-02-23T05:53:24;6.30;87.80
86002;DHT22;76581;51.988;5.854;2024-02-23T05:54:25;6.30;87.90
86002;DHT22;76581;51.988;5.854;2024-02-23T05:55:25;6.30;87.80
86002;DHT22;76581;51.988;5.854;2024-02-23T05:56:26;6.40;87.80
86002;DHT22;76581;51.988;5.854;2024-02-23T05:57:27;6.40;87.90
86002;DHT22;76581;51.988;5.854;2024-02-23T05:58:27;6.40;87.90
86002;DHT22;76581;51.988;5.854;2024-02-23T05:59:28;6.40;87.60
86002;DHT22;76581;51.988;5.854;2024-02-23T06:00:29;6.40;87.70
86002;DHT22;76581;51.988;5.854;2024-02-23T06:01:31;6.40;87.70
86002;DHT22;76581;51.988;5.854;2024-02-23T06:02:31;6.40;87.70
86002;DHT22;76581;51.988;5.854;2024-02-23T06:03:32;6.40;87.70
86002;DHT22;76581;51.988;5.854;2024-02-23T06:04:33;6.40;87.80
86002;DHT22;76581;51.988;5.854;2024-02-23T06:05:34;6.40;87.70
86002;DHT22;76581;51.988;5.854;2024-02-23T06:06:34;6.40;87.70
86002;DHT22;76581;51.988;5.854;2024-02-23T06:07:35;6.40;87.70
86002;DHT22;76581;51.988;5.854;2024-02-23T06:08:37;6.40;87.70
86002;DHT22;76581;51.988;5.854;2024-02-23T06:09:37;6.40;87.70
86002;DHT22;76581;51.988;5.854;2024-02-23T06:10:38;6.40;87.70
86002;DHT22;76581;51.988;5.854;2024-02-23T06:11:39;6.40;87.20
86002;DHT22;76581;51.988;5.854;2024-02-23T06:12:40;6.40;87.00
86002;DHT22;76581;51.988;5.854;2024-02-23T06:13:40;6.40;87.20
86002;DHT22;76581;51.988;5.854;2024-02-23T06:14:41;6.40;87.40
86002;DHT22;76581;51.988;5.854;2024-02-23T06:15:41;6.40;88.20
86002;DHT22;76581;51.988;5.854;2024-02-23T06:16:42;6.40;87.40
86002;DHT22;76581;51.988;5.854;2024-02-23T06:17:43;6.40;87.10
86002;DHT22;76581;51.988;5.854;2024-02-23T06:18:44;6.40;87.30
86002;DHT22;76581;51.988;5.854;2024-02-23T06:19:45;6.40;87.40
86002;DHT22;76581;51.988;5.854;2024-02-23T06:20:45;6.50;87.40
86002;DHT22;76581;51.988;5.854;2024-02-23T06:21:49;6.40;87.00
86002;DHT22;76581;51.988;5.854;2024-02-23T06:22:50;6.40;87.10
86002;DHT22;76581;51.988;5.854;2024-02-23T06:23:51;6.40;87.00
86002;DHT22;76581;51.988;5.854;2024-02-23T06:24:51;6.40;87.20
86002;DHT22;76581;51.988;5.854;2024-02-23T06:25:52;6.40;87.30
86002;DHT22;76581;51.988;5.854;2024-02-23T06:26:52;6.40;87.20
86002;DHT22;76581;51.988;5.854;2024-02-23T06:27:53;6.40;87.00
86002;DHT22;76581;51.988;5.854;2024-02-23T06:28:53;6.40;87.00
86002;DHT22;76581;51.988;5.854;2024-02-23T06:29:54;6.50;87.10